Time;durP1;ratioP1;P1;durP2;ratioP2;P2;SDS_P1;SDS_P2;PMS_P1;PMS_P2;Temp;Humidity;BMP_temperature;BMP_pressure;BME280_temperature;BME280_humidity;BME280_pressure;Samples;Min_cycle;Max_cycle;Signal;HPM_P1;HPM_P2
2021/05/29 00:02:24;;;;;;;23.50;11.40;;;11.40;87.20;;;;;;5066643;28;20070;-72
2021/05/29 00:04:50;;;;;;;16.23;11.45;;;11.40;87.60;;;;;;5062123;28;20095;-73
2021/05/29 00:07:17;;;;;;;17.40;12.75;;;11.40;87.30;;;;;;5073044;28;20082;-72
2021/05/29 00:09:43;;;;;;;18.90;12.70;;;11.40;87.50;;;;;;5072272;28;20540;-73
2021/05/29 00:12:11;;;;;;;22.23;13.15;;;11.30;87.50;;;;;;5063714;28;20033;-72
2021/05/29 00:14:39;;;;;;;19.90;14.15;;;11.30;87.80;;;;;;5066357;28;20432;-72
2021/05/29 00:17:07;;;;;;;20.05;13.50;;;11.30;87.80;;;;;;5066619;28;20029;-73
2021/05/29 00:19:33;;;;;;;20.00;13.68;;;11.30;87.80;;;;;;5069646;28;20021;-73
2021/05/29 00:21:59;;;;;;;21.10;14.70;;;11.30;87.70;;;;;;5055403;28;20020;-72
2021/05/29 00:24:25;;;;;;;23.42;15.88;;;11.30;87.90;;;;;;5038130;28;20032;-72
2021/05/29 00:26:51;;;;;;;18.88;14.00;;;11.30;88.10;;;;;;5071485;28;20138;-73
2021/05/29 00:29:17;;;;;;;20.00;14.40;;;11.20;88.10;;;;;;5049764;28;20041;-72
2021/05/29 00:31:43;;;;;;;21.02;15.07;;;11.20;88.10;;;;;;5035253;28;20506;-73
2021/05/29 00:34:08;;;;;;;25.27;15.57;;;11.20;88.30;;;;;;5070640;28;20025;-72
2021/05/29 00:36:34;;;;;;;19.55;15.05;;;11.10;88.40;;;;;;5072792;28;20021;-73
2021/05/29 00:39:00;;;;;;;24.35;14.82;;;11.20;88.40;;;;;;5071525;28;20102;-72
2021/05/29 00:41:26;;;;;;;20.42;14.70;;;11.10;88.40;;;;;;5061002;28;20035;-72
2021/05/29 00:43:51;;;;;;;21.42;14.98;;;11.10;88.50;;;;;;5059990;28;20044;-72
2021/05/29 00:46:17;;;;;;;30.65;16.08;;;11.10;88.80;;;;;;5067851;28;20017;-73
2021/05/29 00:48:43;;;;;;;22.10;15.60;;;11.10;88.90;;;;;;5071426;28;20031;-73
2021/05/29 00:51:09;;;;;;;21.13;14.35;;;11.10;89.00;;;;;;5067850;28;20071;-73
2021/05/29 00:53:38;;;;;;;21.67;15.40;;;11.10;88.90;;;;;;5065024;28;20028;-72
2021/05/29 00:56:05;;;;;;;23.60;15.23;;;11.10;88.90;;;;;;5072689;28;20024;-72
2021/05/29 00:58:31;;;;;;;23.15;15.82;;;11.10;89.00;;;;;;5068813;28;20032;-73
2021/05/29 01:00:58;;;;;;;24.48;15.90;;;11.10;89.20;;;;;;5069052;28;20024;-72
2021/05/29 01:03:25;;;;;;;24.15;16.45;;;11.10;89.20;;;;;;5069096;28;20032;-73
2021/05/29 01:05:51;;;;;;;22.10;15.98;;;11.10;89.10;;;;;;5070853;28;20047;-73
2021/05/29 01:08:16;;;;;;;25.52;17.20;;;11.20;89.30;;;;;;5070738;28;20498;-73
2021/05/29 01:10:44;;;;;;;25.30;17.50;;;11.20;89.30;;;;;;5051276;28;20052;-73
2021/05/29 01:13:12;;;;;;;25.63;17.40;;;11.10;89.30;;;;;;5051517;28;20100;-73
2021/05/29 01:15:46;;;;;;;23.23;16.20;;;11.10;89.20;;;;;;5063404;28;20463;-72
2021/05/29 01:18:15;;;;;;;25.05;16.77;;;11.10;89.50;;;;;;5062228;28;20183;-72
2021/05/29 01:20:43;;;;;;;22.88;16.65;;;11.00;89.50;;;;;;5067535;28;20039;-73
2021/05/29 01:23:09;;;;;;;25.00;16.45;;;11.00;89.50;;;;;;5067422;28;20402;-73
2021/05/29 01:25:41;;;;;;;24.33;17.10;;;11.00;89.50;;;;;;5051972;28;20024;-72
2021/05/29 01:28:13;;;;;;;22.52;16.77;;;11.00;89.60;;;;;;5063191;28;20380;-73
2021/05/29 01:30:43;;;;;;;23.73;16.95;;;11.00;89.50;;;;;;5048851;28;20041;-73
2021/05/29 01:33:15;;;;;;;20.70;16.20;;;11.00;89.60;;;;;;5035761;28;20029;-72
2021/05/29 01:35:43;;;;;;;22.98;16.08;;;11.00;89.60;;;;;;5049044;28;20025;-73
2021/05/29 01:38:10;;;;;;;22.58;16.48;;;11.10;89.70;;;;;;5066680;28;20463;-73
2021/05/29 01:40:37;;;;;;;24.05;17.10;;;11.10;89.60;;;;;;5053594;28;20036;-72
2021/05/29 01:43:03;;;;;;;23.17;15.45;;;11.10;89.50;;;;;;5051084;28;20032;-72
2021/05/29 01:45:29;;;;;;;21.25;14.57;;;11.10;89.50;;;;;;5053515;28;20025;-73
2021/05/29 01:47:56;;;;;;;20.70;13.27;;;11.10;89.70;;;;;;5069267;28;20412;-72
2021/05/29 01:50:22;;;;;;;20.40;12.13;;;11.00;89.80;;;;;;5064019;28;20028;-72
2021/05/29 01:52:47;;;;;;;20.70;12.85;;;11.00;89.90;;;;;;5071309;28;20028;-73
2021/05/29 01:55:14;;;;;;;23.98;13.95;;;11.00;90.00;;;;;;5067002;28;20502;-74
2021/05/29 01:57:40;;;;;;;18.40;12.80;;;11.00;90.00;;;;;;5060543;28;20027;-72
2021/05/29 02:00:07;;;;;;;23.17;14.15;;;11.00;90.20;;;;;;5070951;28;20036;-73
2021/05/29 02:02:33;;;;;;;21.98;13.23;;;11.00;90.20;;;;;;5068826;28;20024;-73
2021/05/29 02:05:07;;;;;;;22.90;13.15;;;11.00;90.20;;;;;;5062294;28;20439;-73
2021/05/29 02:07:33;;;;;;;18.52;13.85;;;11.00;90.20;;;;;;5024106;28;20033;-72
2021/05/29 02:09:58;;;;;;;19.90;13.00;;;11.00;90.50;;;;;;5063708;28;20041;-73
2021/05/29 02:12:24;;;;;;;21.45;14.43;;;11.00;90.20;;;;;;5071693;28;20021;-72
2021/05/29 02:14:50;;;;;;;23.10;16.35;;;11.00;90.30;;;;;;5044473;28;20028;-72
2021/05/29 02:17:15;;;;;;;22.00;16.77;;;10.90;90.30;;;;;;5071777;28;20477;-73
2021/05/29 02:19:41;;;;;;;27.42;16.00;;;10.90;90.40;;;;;;5052913;28;20108;-72
2021/05/29 02:22:07;;;;;;;23.55;15.82;;;10.90;90.30;;;;;;5062250;28;20111;-74
2021/05/29 02:24:33;;;;;;;24.88;17.33;;;10.90;90.30;;;;;;5069137;28;20119;-72
2021/05/29 02:26:58;;;;;;;24.35;16.13;;;10.90;90.30;;;;;;5051646;28;20025;-73
2021/05/29 02:29:24;;;;;;;24.42;16.02;;;10.90;90.20;;;;;;5067600;28;20513;-73
2021/05/29 02:31:50;;;;;;;24.10;16.70;;;10.90;90.20;;;;;;5068565;28;20063;-72
2021/05/29 02:34:15;;;;;;;20.15;15.45;;;10.90;90.10;;;;;;5063494;28;20020;-73
2021/05/29 02:36:41;;;;;;;21.10;15.07;;;10.90;90.20;;;;;;5070648;28;20107;-72
2021/05/29 02:39:07;;;;;;;23.60;16.05;;;10.90;90.10;;;;;;5069528;28;20028;-72
2021/05/29 02:41:32;;;;;;;24.35;15.68;;;10.90;90.10;;;;;;5071118;28;20032;-72
2021/05/29 02:43:58;;;;;;;24.00;16.50;;;10.90;90.20;;;;;;5070841;28;20035;-72
2021/05/29 02:46:24;;;;;;;27.67;18.05;;;10.90;90.30;;;;;;5055762;28;20033;-72
2021/05/29 02:48:49;;;;;;;25.35;18.17;;;10.90;90.30;;;;;;5056140;28;20034;-72
2021/05/29 02:51:15;;;;;;;26.70;18.45;;;10.90;90.30;;;;;;5068962;28;20112;-72
2021/05/29 02:53:42;;;;;;;29.15;19.17;;;10.90;90.30;;;;;;5075256;28;20474;-72
2021/05/29 02:56:08;;;;;;;25.35;16.88;;;10.90;90.30;;;;;;5073674;28;20025;-72
2021/05/29 02:58:34;;;;;;;29.45;19.23;;;10.90;90.20;;;;;;5054124;28;20031;-74
2021/05/29 03:00:59;;;;;;;25.30;18.27;;;10.90;90.20;;;;;;5068657;28;20071;-72
2021/05/29 03:03:25;;;;;;;29.23;18.50;;;10.90;90.20;;;;;;5070871;28;20040;-72
2021/05/29 03:05:51;;;;;;;27.52;19.73;;;10.90;90.20;;;;;;5064010;28;20033;-72
2021/05/29 03:08:19;;;;;;;27.85;20.70;;;10.90;90.30;;;;;;5052399;28;20025;-72
2021/05/29 03:10:46;;;;;;;26.02;19.00;;;10.90;90.40;;;;;;5073326;28;20037;-72
2021/05/29 03:13:12;;;;;;;27.58;17.88;;;10.80;90.40;;;;;;5071622;28;20028;-73
2021/05/29 03:15:39;;;;;;;25.48;18.85;;;10.80;90.40;;;;;;5074070;28;20054;-73
2021/05/29 03:18:06;;;;;;;29.40;20.55;;;10.80;90.40;;;;;;5048496;28;20044;-72
2021/05/29 03:20:34;;;;;;;28.08;18.63;;;10.80;90.40;;;;;;5073906;28;20100;-72
2021/05/29 03:23:00;;;;;;;28.02;17.73;;;10.80;90.30;;;;;;5054684;28;20029;-74
2021/05/29 03:25:26;;;;;;;26.48;17.92;;;10.80;90.30;;;;;;5073050;28;20436;-73
2021/05/29 03:27:53;;;;;;;25.38;16.48;;;10.80;90.40;;;;;;5074163;28;20032;-74
2021/05/29 03:30:25;;;;;;;27.38;16.00;;;10.80;90.50;;;;;;5071865;28;20066;-73
2021/05/29 03:32:51;;;;;;;24.15;16.33;;;10.80;90.40;;;;;;5065316;28;20033;-74
2021/05/29 03:35:21;;;;;;;22.55;14.45;;;10.80;90.40;;;;;;5072912;28;20483;-73
2021/05/29 03:37:46;;;;;;;21.88;13.13;;;10.80;90.40;;;;;;5072720;28;20035;-74
2021/05/29 03:40:14;;;;;;;20.55;12.98;;;10.80;90.40;;;;;;5069332;28;20212;-74
2021/05/29 03:42:40;;;;;;;21.27;14.10;;;10.80;90.40;;;;;;5060357;28;20052;-73
2021/05/29 03:45:12;;;;;;;22.42;13.13;;;10.80;90.50;;;;;;5047266;28;20031;-73
2021/05/29 03:47:39;;;;;;;22.50;14.65;;;10.70;90.40;;;;;;5073084;28;20016;-74
2021/05/29 03:50:06;;;;;;;19.95;12.80;;;10.70;90.30;;;;;;5066036;28;20072;-74
2021/05/29 03:52:32;;;;;;;21.77;13.95;;;10.70;90.30;;;;;;5075233;28;20112;-74
2021/05/29 03:54:58;;;;;;;23.98;14.68;;;10.70;90.30;;;;;;5069527;28;20096;-73
2021/05/29 03:57:24;;;;;;;22.80;14.20;;;10.70;90.30;;;;;;5065001;28;20109;-74
2021/05/29 03:59:49;;;;;;;25.52;16.73;;;10.70;90.30;;;;;;5068191;28;20418;-74
2021/05/29 04:02:15;;;;;;;22.58;15.45;;;10.70;90.30;;;;;;5064351;28;20539;-73
2021/05/29 04:04:41;;;;;;;26.00;16.88;;;10.70;90.30;;;;;;5063743;28;20099;-74
2021/05/29 04:07:07;;;;;;;24.75;15.95;;;10.80;90.30;;;;;;5053424;28;20100;-73
2021/05/29 04:09:33;;;;;;;26.02;16.40;;;10.80;90.30;;;;;;5053308;28;20478;-74
2021/05/29 04:11:58;;;;;;;27.70;17.38;;;10.80;90.30;;;;;;5054527;28;20122;-73
2021/05/29 04:14:24;;;;;;;26.17;17.63;;;10.80;90.30;;;;;;5065854;28;20039;-74
2021/05/29 04:16:50;;;;;;;24.60;17.08;;;10.80;90.40;;;;;;5051901;28;20072;-73
2021/05/29 04:19:16;;;;;;;25.88;18.25;;;10.80;90.40;;;;;;5069527;28;20549;-74
2021/05/29 04:21:41;;;;;;;26.17;17.58;;;10.70;90.40;;;;;;5044402;28;20013;-73
2021/05/29 04:24:21;;;;;;;26.90;16.83;;;10.70;90.40;;;;;;5051335;28;20427;-74
2021/05/29 04:26:46;;;;;;;25.42;17.58;;;10.70;90.40;;;;;;5048747;28;20033;-73
2021/05/29 04:29:12;;;;;;;27.55;17.90;;;10.70;90.50;;;;;;5050330;28;20029;-74
2021/05/29 04:31:38;;;;;;;27.55;17.48;;;10.70;90.50;;;;;;5050800;28;20100;-73
2021/05/29 04:34:03;;;;;;;24.88;16.95;;;10.70;90.60;;;;;;5058351;28;20060;-73
2021/05/29 04:36:29;;;;;;;25.65;18.55;;;10.70;90.60;;;;;;5048216;28;20432;-73
2021/05/29 04:38:55;;;;;;;26.58;18.30;;;10.70;90.70;;;;;;5050950;28;20082;-73
2021/05/29 04:41:21;;;;;;;25.88;17.65;;;10.70;90.70;;;;;;5047305;28;20033;-73
2021/05/29 04:43:47;;;;;;;30.38;20.13;;;10.70;90.70;;;;;;5051639;28;20364;-73
2021/05/29 04:46:13;;;;;;;28.00;19.35;;;10.60;90.70;;;;;;5044271;28;20052;-73
2021/05/29 04:48:39;;;;;;;29.73;20.15;;;10.70;90.80;;;;;;5047127;28;20017;-73
2021/05/29 04:51:15;;;;;;;27.90;19.48;;;10.70;91.00;;;;;;5040942;28;20495;-73
2021/05/29 04:53:43;;;;;;;30.48;20.05;;;10.80;90.70;;;;;;5040946;28;20107;-74
2021/05/29 04:56:10;;;;;;;25.15;19.30;;;10.80;90.60;;;;;;5040550;28;20365;-73
2021/05/29 04:58:37;;;;;;;25.77;17.52;;;10.80;90.60;;;;;;5044355;28;20021;-73
2021/05/29 05:01:07;;;;;;;28.30;18.95;;;10.80;90.60;;;;;;5049290;28;20411;-73
2021/05/29 05:03:34;;;;;;;27.30;17.90;;;10.80;90.60;;;;;;5047346;28;20450;-73
2021/05/29 05:06:00;;;;;;;25.40;17.30;;;10.80;90.60;;;;;;5049145;28;20024;-74
2021/05/29 05:08:25;;;;;;;22.52;14.95;;;10.80;90.70;;;;;;5049960;28;20021;-73
2021/05/29 05:10:52;;;;;;;20.15;13.25;;;10.80;90.70;;;;;;5050392;28;20074;-74
2021/05/29 05:13:18;;;;;;;16.85;10.50;;;10.80;90.60;;;;;;5046099;28;20033;-74
2021/05/29 05:15:44;;;;;;;18.48;11.35;;;10.80;90.60;;;;;;5046840;28;20037;-72
2021/05/29 05:18:10;;;;;;;17.85;10.30;;;10.80;90.70;;;;;;5041440;28;20397;-72
2021/05/29 05:20:36;;;;;;;16.77;9.38;;;10.80;90.70;;;;;;5047845;28;20037;-72
2021/05/29 05:23:04;;;;;;;15.23;9.25;;;10.80;90.70;;;;;;5040407;28;20029;-73
2021/05/29 05:25:31;;;;;;;15.82;8.90;;;10.80;90.70;;;;;;5053670;28;20040;-72
2021/05/29 05:28:00;;;;;;;14.45;8.68;;;10.80;90.60;;;;;;5037277;28;20391;-72
2021/05/29 05:30:27;;;;;;;18.92;11.35;;;10.80;90.70;;;;;;5051363;28;20506;-72
2021/05/29 05:32:54;;;;;;;17.58;10.60;;;10.90;90.40;;;;;;5047726;28;20037;-72
2021/05/29 05:35:22;;;;;;;16.50;10.73;;;10.80;90.40;;;;;;5033383;28;20503;-72
2021/05/29 05:37:48;;;;;;;16.08;10.55;;;10.90;90.50;;;;;;5034365;28;20472;-72
2021/05/29 05:40:16;;;;;;;16.00;10.90;;;10.90;90.40;;;;;;5029603;28;20039;-72
2021/05/29 05:42:43;;;;;;;16.50;10.05;;;10.90;90.40;;;;;;5029226;28;20029;-72
2021/05/29 05:45:09;;;;;;;15.93;11.07;;;10.90;90.40;;;;;;5033339;28;20074;-72
2021/05/29 05:47:34;;;;;;;18.88;11.57;;;10.90;90.40;;;;;;5027829;28;20026;-73
2021/05/29 05:50:00;;;;;;;21.25;14.85;;;10.90;90.40;;;;;;5031519;28;20051;-73
2021/05/29 05:52:26;;;;;;;21.63;14.05;;;10.90;90.40;;;;;;5030121;28;20087;-72
2021/05/29 05:54:52;;;;;;;19.38;12.93;;;10.90;90.40;;;;;;5029318;28;20159;-72
2021/05/29 05:57:18;;;;;;;19.73;11.90;;;10.90;90.40;;;;;;5028145;28;20087;-72
2021/05/29 05:59:43;;;;;;;21.75;13.25;;;10.90;90.40;;;;;;5031866;28;20456;-72
2021/05/29 06:02:09;;;;;;;15.77;11.48;;;10.90;90.40;;;;;;5030465;28;20029;-72
2021/05/29 06:04:35;;;;;;;15.85;11.50;;;10.90;90.30;;;;;;5033383;28;20034;-72
2021/05/29 06:07:01;;;;;;;19.08;11.18;;;10.90;90.40;;;;;;5030759;28;20352;-72
2021/05/29 06:09:28;;;;;;;19.77;11.73;;;10.90;90.40;;;;;;5026992;28;20017;-73
2021/05/29 06:11:54;;;;;;;19.65;13.50;;;10.90;90.40;;;;;;5027061;28;20097;-72
2021/05/29 06:19:52;;;;;;;20.00;13.18;;;10.80;90.30;;;;;;5031579;28;20062;-74
2021/05/29 06:22:17;;;;;;;18.63;13.68;;;10.80;90.40;;;;;;5028679;28;20084;-75
2021/05/29 06:24:43;;;;;;;18.45;12.77;;;10.80;90.30;;;;;;5031010;28;20041;-72
2021/05/29 06:27:09;;;;;;;17.55;11.73;;;10.80;90.40;;;;;;5026640;28;20021;-73
2021/05/29 06:29:35;;;;;;;19.70;12.02;;;10.80;90.40;;;;;;5027735;28;20030;-72
2021/05/29 06:32:01;;;;;;;17.98;11.90;;;10.80;90.40;;;;;;5012460;28;20018;-72
2021/05/29 06:34:26;;;;;;;19.60;11.73;;;10.80;90.40;;;;;;5029375;28;20021;-72
2021/05/29 06:36:52;;;;;;;18.17;12.23;;;10.80;90.50;;;;;;5028279;28;20521;-73
2021/05/29 06:39:18;;;;;;;17.42;11.20;;;10.80;90.50;;;;;;5031012;28;20034;-73
2021/05/29 06:41:44;;;;;;;17.55;11.73;;;10.80;90.40;;;;;;5031306;28;20118;-73
2021/05/29 06:44:11;;;;;;;19.48;12.75;;;10.80;90.40;;;;;;5027949;28;20512;-72
2021/05/29 06:46:39;;;;;;;20.52;14.55;;;10.80;90.40;;;;;;5027269;28;20034;-72
2021/05/29 06:49:05;;;;;;;20.85;14.02;;;10.80;90.30;;;;;;5036216;28;20029;-73
2021/05/29 06:51:57;;;;;;;19.85;13.27;;;10.80;90.30;;;;;;5029456;28;20021;-73
2021/05/29 06:59:45;;;;;;;18.50;12.43;;;11.00;90.20;;;;;;5024752;28;20157;-73
2021/05/29 07:02:11;;;;;;;16.05;10.88;;;11.00;90.10;;;;;;5012949;28;20491;-72
2021/05/29 07:04:37;;;;;;;14.68;9.82;;;11.00;90.00;;;;;;5035498;28;20112;-72
2021/05/29 07:07:06;;;;;;;12.27;9.30;;;11.00;89.90;;;;;;5026015;28;20030;-73
2021/05/29 07:09:32;;;;;;;13.57;9.15;;;11.00;89.90;;;;;;5042209;28;20055;-72
2021/05/29 07:11:58;;;;;;;11.55;8.13;;;11.10;89.90;;;;;;5029740;28;20027;-73
2021/05/29 07:14:24;;;;;;;15.75;10.55;;;11.10;89.90;;;;;;5038122;28;20111;-72
2021/05/29 07:16:54;;;;;;;15.95;10.50;;;11.20;89.90;;;;;;5023731;28;20026;-72
2021/05/29 07:19:21;;;;;;;16.05;10.27;;;11.20;89.50;;;;;;5036842;28;20029;-72
2021/05/29 07:21:48;;;;;;;14.10;10.30;;;11.30;89.70;;;;;;5023868;28;20026;-71
2021/05/29 07:24:14;;;;;;;13.55;9.32;;;11.30;89.20;;;;;;5029012;28;20041;-72
2021/05/29 07:26:40;;;;;;;14.80;11.38;;;11.30;88.60;;;;;;5027777;28;20031;-73
2021/05/29 07:29:06;;;;;;;15.90;10.55;;;11.40;88.10;;;;;;5029465;28;20033;-72
2021/05/29 07:31:32;;;;;;;16.65;10.18;;;11.40;88.20;;;;;;5022382;28;20045;-73
2021/05/29 07:33:58;;;;;;;15.25;10.68;;;11.40;88.90;;;;;;5030771;28;20029;-69
2021/05/29 07:36:24;;;;;;;16.45;11.10;;;11.50;88.50;;;;;;5028279;28;20419;-71
2021/05/29 07:38:51;;;;;;;18.73;12.45;;;11.50;88.20;;;;;;5024351;28;20033;-70
2021/05/29 07:41:17;;;;;;;19.33;12.52;;;11.60;88.10;;;;;;5031164;28;20391;-70
2021/05/29 07:43:42;;;;;;;16.98;12.70;;;11.60;88.10;;;;;;5022917;28;20403;-72
2021/05/29 07:46:09;;;;;;;19.17;14.18;;;11.60;88.00;;;;;;5029184;28;20021;-72
2021/05/29 07:48:35;;;;;;;20.70;14.43;;;11.60;87.90;;;;;;5022060;28;20074;-72
2021/05/29 07:51:03;;;;;;;21.60;14.38;;;11.70;87.40;;;;;;5026657;28;20379;-73
2021/05/29 07:53:32;;;;;;;20.13;14.45;;;11.70;87.00;;;;;;5026762;28;20038;-71
2021/05/29 07:55:58;;;;;;;21.00;13.50;;;11.70;88.50;;;;;;5043774;28;20036;-74
2021/05/29 07:58:25;;;;;;;17.48;12.32;;;12.00;87.90;;;;;;5026488;28;20025;-71
2021/05/29 08:00:53;;;;;;;16.98;13.25;;;12.10;86.80;;;;;;5022902;28;20396;-72
2021/05/29 08:03:23;;;;;;;15.90;11.98;;;12.10;85.40;;;;;;5023929;28;20509;-71
2021/05/29 08:05:51;;;;;;;17.38;12.45;;;12.10;86.00;;;;;;5026873;28;20025;-71
2021/05/29 08:08:18;;;;;;;16.65;12.63;;;12.10;86.20;;;;;;5027538;28;20434;-71
2021/05/29 08:10:46;;;;;;;18.92;13.60;;;12.20;86.20;;;;;;5029537;28;20029;-72
2021/05/29 08:13:12;;;;;;;17.77;13.02;;;12.20;85.30;;;;;;5028445;28;20053;-72
2021/05/29 08:15:38;;;;;;;17.60;12.30;;;12.20;85.30;;;;;;5028836;28;20030;-74
2021/05/29 08:18:04;;;;;;;17.35;13.02;;;12.20;85.40;;;;;;5023894;28;20033;-75
2021/05/29 08:20:30;;;;;;;14.52;10.40;;;12.30;85.60;;;;;;5026736;28;20173;-76
2021/05/29 08:22:55;;;;;;;15.68;10.93;;;12.30;84.90;;;;;;5027667;28;20104;-74
2021/05/29 08:25:21;;;;;;;14.95;9.93;;;12.30;85.30;;;;;;5030341;28;20503;-73
2021/05/29 08:27:47;;;;;;;14.88;9.60;;;12.40;85.10;;;;;;5030470;28;20040;-73
2021/05/29 08:30:13;;;;;;;12.55;8.63;;;12.50;84.20;;;;;;5028851;28;20084;-71
2021/05/29 08:32:40;;;;;;;12.40;8.88;;;12.50;84.50;;;;;;5023109;28;20099;-70
2021/05/29 08:35:07;;;;;;;12.13;9.02;;;12.50;83.90;;;;;;5022773;28;20105;-70
2021/05/29 08:37:33;;;;;;;13.20;8.35;;;12.60;84.50;;;;;;5025202;28;20018;-71
2021/05/29 08:39:59;;;;;;;12.13;6.82;;;12.60;84.50;;;;;;5024992;28;20033;-71
2021/05/29 08:42:25;;;;;;;7.53;5.53;;;12.70;82.90;;;;;;5024575;28;20041;-71
2021/05/29 08:44:51;;;;;;;9.63;6.25;;;12.70;83.10;;;;;;5022195;28;20030;-72
2021/05/29 08:47:20;;;;;;;9.00;6.18;;;12.70;82.20;;;;;;5019463;28;20044;-71
2021/05/29 08:49:46;;;;;;;15.68;8.00;;;12.80;82.90;;;;;;5026062;28;20075;-71
2021/05/29 08:52:12;;;;;;;12.75;7.43;;;12.80;82.80;;;;;;5036421;28;20029;-71
2021/05/29 08:54:38;;;;;;;14.10;9.02;;;12.90;82.80;;;;;;5019889;28;20109;-71
2021/05/29 08:57:04;;;;;;;10.93;8.02;;;12.90;82.40;;;;;;5022906;28;20025;-71
2021/05/29 08:59:30;;;;;;;11.98;8.13;;;12.90;82.60;;;;;;5022399;28;20033;-73
2021/05/29 09:02:01;;;;;;;12.32;8.85;;;13.00;82.90;;;;;;5022066;28;20161;-72
2021/05/29 09:04:27;;;;;;;;;;;13.00;82.80;;;;;;5026411;28;20041;-72
2021/05/29 09:06:53;;;;;;;11.52;8.93;;;13.10;82.70;;;;;;5021470;28;19909;-72
2021/05/29 09:09:19;;;;;;;13.75;9.75;;;13.10;82.90;;;;;;5018879;28;20021;-72
2021/05/29 09:11:49;;;;;;;11.18;9.40;;;13.20;82.10;;;;;;5027494;28;20498;-74
2021/05/29 09:14:31;;;;;;;15.15;9.93;;;13.20;82.20;;;;;;5025943;28;20030;-74
2021/05/29 09:17:25;;;;;;;13.48;10.50;;;13.20;82.20;;;;;;5028478;28;20105;-73
2021/05/29 09:20:03;;;;;;;16.30;10.63;;;13.20;82.60;;;;;;5026492;28;20444;-74
2021/05/29 09:22:52;;;;;;;13.50;10.55;;;13.10;82.60;;;;;;5031193;28;20029;-74
2021/05/29 09:25:22;;;;;;;14.15;11.02;;;13.10;81.90;;;;;;5031399;28;20026;-75
2021/05/29 09:28:01;;;;;;;13.93;9.75;;;13.10;81.90;;;;;;5033265;28;20430;-75
2021/05/29 09:30:38;;;;;;;13.40;9.63;;;13.10;82.20;;;;;;5029581;28;20092;-76
2021/05/29 09:33:20;;;;;;;11.13;8.10;;;13.10;81.90;;;;;;5029623;28;20037;-75
2021/05/29 09:35:59;;;;;;;10.35;7.50;;;13.10;81.60;;;;;;5023637;28;20066;-76
2021/05/29 09:38:35;;;;;;;12.88;8.68;;;13.10;81.80;;;;;;5034193;28;20512;-75
2021/05/29 09:41:02;;;;;;;9.32;7.47;;;13.20;81.90;;;;;;5032253;28;20553;-76
2021/05/29 09:43:28;;;;;;;9.98;7.53;;;13.30;81.80;;;;;;5042826;28;20029;-75
2021/05/29 09:46:03;;;;;;;10.30;6.85;;;13.30;81.10;;;;;;5032449;28;20029;-73
2021/05/29 09:48:29;;;;;;;9.93;7.40;;;13.40;81.10;;;;;;5033794;28;20112;-75
2021/05/29 09:50:58;;;;;;;10.18;6.68;;;13.30;80.40;;;;;;5030463;28;20108;-75
2021/05/29 09:53:29;;;;;;;10.40;6.97;;;13.40;80.70;;;;;;5032935;28;20025;-74
2021/05/29 09:55:55;;;;;;;9.60;6.53;;;13.30;80.20;;;;;;5025666;28;20029;-74
2021/05/29 09:58:22;;;;;;;9.88;6.50;;;13.40;81.00;;;;;;5022375;28;20025;-75
2021/05/29 10:00:50;;;;;;;8.90;6.22;;;13.50;80.50;;;;;;5031947;28;20023;-76
2021/05/29 10:03:16;;;;;;;8.98;5.72;;;13.50;80.60;;;;;;5023977;28;20026;-75
2021/05/29 10:05:47;;;;;;;10.38;6.20;;;13.60;79.80;;;;;;5022399;28;20473;-75
2021/05/29 10:08:14;;;;;;;10.63;6.47;;;13.70;79.60;;;;;;5032203;28;20076;-74
2021/05/29 10:10:41;;;;;;;14.88;7.30;;;13.70;79.20;;;;;;5030208;28;20374;-74
2021/05/29 10:13:07;;;;;;;11.15;7.22;;;13.80;79.40;;;;;;5028363;28;20021;-72
2021/05/29 10:15:33;;;;;;;8.48;7.05;;;13.90;79.00;;;;;;5032406;28;20029;-72
2021/05/29 10:18:02;;;;;;;10.77;7.22;;;13.80;79.00;;;;;;5028782;28;20082;-70
2021/05/29 10:20:30;;;;;;;9.40;6.70;;;13.90;79.30;;;;;;5028448;28;20034;-72
2021/05/29 10:22:57;;;;;;;8.70;6.88;;;13.90;79.00;;;;;;5028525;28;20029;-72
2021/05/29 10:25:22;;;;;;;9.25;7.32;;;13.90;79.00;;;;;;5029962;28;20487;-71
2021/05/29 10:27:54;;;;;;;8.80;7.10;;;13.90;77.60;;;;;;5024040;28;20021;-70
2021/05/29 10:30:22;;;;;;;8.38;6.47;;;14.00;77.60;;;;;;5029194;28;20021;-71
2021/05/29 10:33:17;;;;;;;9.68;6.40;;;14.00;77.30;;;;;;5029480;28;20478;-71
2021/05/29 10:35:43;;;;;;;10.38;6.05;;;14.10;76.90;;;;;;5026652;28;20026;-72
2021/05/29 10:38:10;;;;;;;6.97;5.68;;;14.10;78.00;;;;;;5023753;28;20483;-71
2021/05/29 10:40:42;;;;;;;7.65;5.20;;;14.20;78.10;;;;;;5028168;28;20029;-71
2021/05/29 10:43:20;;;;;;;7.63;5.30;;;14.20;78.00;;;;;;5031084;28;20041;-69
2021/05/29 10:45:52;;;;;;;10.20;6.28;;;14.20;76.00;;;;;;5029580;28;20032;-72
2021/05/29 10:48:20;;;;;;;7.70;5.13;;;14.20;76.50;;;;;;5028912;28;20117;-73
2021/05/29 10:50:56;;;;;;;10.68;4.93;;;14.20;76.70;;;;;;5027123;28;20036;-72
2021/05/29 10:53:37;;;;;;;7.45;4.90;;;14.30;78.00;;;;;;5029961;28;20030;-71
2021/05/29 10:56:15;;;;;;;8.65;6.03;;;14.40;76.90;;;;;;5019008;28;20492;-72
2021/05/29 10:59:05;;;;;;;8.50;5.38;;;14.40;75.60;;;;;;5027623;28;20061;-71
2021/05/29 11:01:38;;;;;;;8.20;5.05;;;14.40;75.90;;;;;;5030444;28;20515;-72
2021/05/29 11:04:16;;;;;;;7.57;5.20;;;14.40;76.50;;;;;;5027743;28;20083;-72
2021/05/29 11:06:47;;;;;;;8.20;5.55;;;14.50;76.50;;;;;;5029532;28;20022;-72
2021/05/29 11:09:14;;;;;;;6.40;5.30;;;14.60;76.30;;;;;;5025805;28;20022;-72
2021/05/29 11:14:13;;;;;;;7.95;5.38;;;14.70;76.50;;;;;;5027198;28;20025;-72
2021/05/29 11:16:51;;;;;;;9.85;5.30;;;14.70;75.50;;;;;;5020862;28;20036;-72
2021/05/29 11:19:25;;;;;;;9.07;5.47;;;14.80;76.90;;;;;;5028161;28;20044;-72
2021/05/29 11:22:13;;;;;;;5.88;4.57;;;15.20;75.70;;;;;;5033126;28;20061;-72
2021/05/29 11:24:49;;;;;;;8.63;4.93;;;15.60;74.40;;;;;;5030667;28;20052;-73
2021/05/29 11:27:22;;;;;;;9.82;5.68;;;15.70;71.70;;;;;;5020869;28;20026;-72
2021/05/29 11:29:50;;;;;;;7.50;5.88;;;15.80;72.00;;;;;;5028485;28;20088;-71
2021/05/29 11:32:42;;;;;;;8.80;6.97;;;16.10;72.90;;;;;;5028411;28;20025;-72
2021/05/29 11:35:17;;;;;;;10.25;6.63;;;16.50;71.00;;;;;;5024746;28;20022;-73
2021/05/29 11:37:59;;;;;;;11.38;7.50;;;17.60;70.00;;;;;;5032395;28;20047;-73
2021/05/29 11:40:51;;;;;;;9.18;7.60;;;18.10;66.80;;;;;;5031841;28;20041;-73
2021/05/29 11:43:31;;;;;;;9.15;7.28;;;18.40;65.10;;;;;;5028225;28;20037;-73
2021/05/29 11:45:58;;;;;;;7.78;6.88;;;18.70;63.10;;;;;;5030388;28;20021;-72
2021/05/29 11:48:33;;;;;;;10.50;7.60;;;19.60;63.30;;;;;;5028716;28;20025;-73
2021/05/29 11:51:11;;;;;;;9.77;7.75;;;19.90;59.20;;;;;;5027595;28;20025;-73
2021/05/29 11:53:52;;;;;;;7.75;6.70;;;20.30;59.20;;;;;;5031522;28;20083;-73
2021/05/29 11:56:28;;;;;;;9.60;6.65;;;20.90;57.50;;;;;;5031420;28;20492;-72
2021/05/29 11:58:54;;;;;;;7.65;6.85;;;21.60;57.40;;;;;;5027644;28;20041;-73
2021/05/29 12:01:27;;;;;;;8.48;7.13;;;22.10;52.90;;;;;;5034532;28;20091;-72
2021/05/29 12:03:56;;;;;;;7.13;6.43;;;21.30;50.30;;;;;;5031714;28;20021;-73
2021/05/29 12:06:37;;;;;;;11.07;8.05;;;20.30;54.20;;;;;;5027818;28;20101;-73
2021/05/29 12:09:24;;;;;;;10.65;8.30;;;19.50;58.00;;;;;;5031964;28;20025;-73
2021/05/29 12:11:52;;;;;;;7.20;5.93;;;19.10;61.30;;;;;;5034305;28;20087;-72
2021/05/29 12:14:32;;;;;;;7.97;6.20;;;19.60;60.70;;;;;;5033878;28;20033;-73
2021/05/29 12:17:00;;;;;;;8.60;6.30;;;19.70;59.00;;;;;;5037900;28;20077;-73
2021/05/29 12:19:38;;;;;;;9.45;5.88;;;19.30;58.10;;;;;;5028590;28;20064;-73
2021/05/29 12:22:19;;;;;;;9.55;5.80;;;18.90;61.20;;;;;;5030714;28;20053;-73
2021/05/29 12:24:45;;;;;;;8.38;5.97;;;19.20;61.90;;;;;;5031683;28;20108;-73
2021/05/29 12:27:22;;;;;;;7.43;5.35;;;19.60;62.70;;;;;;5029788;28;20030;-73
2021/05/29 12:29:49;;;;;;;11.18;7.20;;;20.20;58.80;;;;;;5031766;28;20030;-73
2021/05/29 12:32:33;;;;;;;7.13;6.18;;;20.20;57.80;;;;;;5031408;28;20030;-73
2021/05/29 12:35:02;;;;;;;9.07;6.65;;;19.70;57.70;;;;;;5031806;28;20040;-73
2021/05/29 12:37:31;;;;;;;8.35;6.70;;;19.30;58.70;;;;;;5021479;28;20088;-72
2021/05/29 12:40:02;;;;;;;9.20;6.57;;;19.40;61.00;;;;;;5033566;28;20056;-73
2021/05/29 12:42:38;;;;;;;8.80;7.50;;;20.20;59.20;;;;;;5030900;28;20476;-73
2021/05/29 12:45:29;;;;;;;9.93;6.55;;;20.30;54.00;;;;;;5033899;28;20041;-72
2021/05/29 12:47:55;;;;;;;8.95;7.20;;;20.00;55.20;;;;;;5032533;28;20484;-72
2021/05/29 12:50:24;;;;;;;9.23;8.10;;;19.60;56.70;;;;;;5035362;28;20052;-72
2021/05/29 12:52:50;;;;;;;10.50;8.60;;;19.10;58.20;;;;;;5036533;28;20036;-73
2021/05/29 12:55:21;;;;;;;8.07;6.80;;;18.90;59.90;;;;;;5036438;28;20025;-72